Fillmore, UT

7:26 AM MST on February 25, 2017 (GMT -0700)
Rural Township 4 Homes / 10 acres | | Change Station

Elev 5310 ft 39.24 °N, 112.11 °W | Updated 20 seconds ago

Partly Cloudy
Partly Cloudy
15.3 °F
Feels Like 15 °F
N
2.7
Wind Variable Wind from SSW

Today
High -- | Low -- °F
--% Chance of Precip.
Yesterday
High -- | Low -- °F
Precip. -- in
Pressure 30.17 in
Visibility 10.0 miles
Clouds Scattered Clouds 8000 ft
Windchill 15 °F
Dew Point 12 °F
Humidity 87%
Rainfall 0.00 in
Snow Depth Not available.
7:06 AM 6:18 PM
Waning Crescent, 1% visible
METAR KMLF 251352Z AUTO 19005KT 10SM SCT080 M10/M12 A3005 RMK AO2 SLP215 T11001122
Pressure 30.17 in
Visibility 10.0 miles
Clouds Scattered Clouds 8000 ft
Windchill 15 °F
Dew Point 12 °F
Humidity 87%
Rainfall 0.00 in
Snow Depth Not available.
7:06 AM 6:18 PM
Waning Crescent, 1% visible
METAR KMLF 251352Z AUTO 19005KT 10SM SCT080 M10/M12 A3005 RMK AO2 SLP215 T11001122

Get Your Daily Forecast Email!

Thanks for signing up!

Be on the lookout for a verification email in your inbox.

You'll start receiving the daily forecast at 8 AM.

×

10-Day Weather Forecast

Almanac

Astronomy

Feb. 25, 2017 Rise Set
Actual Time
Civil Twilight
Nautical Twilight
Astronomical Twilight
Moon
Length of Visible Light
Length of Day
Tomorrow will be .
, % of the Moon is Illuminated

Today's Extremes

State Highs State Lows

Community

WunderPhotos

Upload Photos

1,962,540 photos uploaded!

WunderBlog® & News

Nearby

Air Quality

  Air Quality AQ Index Pollutant
Not available.

Snow Depth

Station Depth Elevation

Earthquake Activity

City Distance Mag. Time & Date
Minimum magnitude displayed is 2.5.

Coastal Water Temperatures

Place Temperature

Stations

Nearby Weather Stations

Station Location Temp. Windchill Dew Point Humidity Wind Precip. Elev Updated Type
                   

Watches & Warnings

There are currently no watches in effect.